sensor_id;sensor_type;location;lat;lon;timestamp;P1;durP1;ratioP1;P2;durP2;ratioP2
57856;SDS011;43683;48.650;9.290;2023-10-09T00:00:56;11.07;;;4.68;;
57856;SDS011;43683;48.650;9.290;2023-10-09T00:03:43;8.82;;;4.90;;
57856;SDS011;43683;48.650;9.290;2023-10-09T00:06:10;7.70;;;4.30;;
57856;SDS011;43683;48.650;9.290;2023-10-09T00:08:39;10.40;;;4.00;;
57856;SDS011;43683;48.650;9.290;2023-10-09T00:11:09;13.18;;;4.78;;
57856;SDS011;43683;48.650;9.290;2023-10-09T00:13:42;10.32;;;4.75;;
57856;SDS011;43683;48.650;9.290;2023-10-09T00:16:15;9.25;;;4.32;;
57856;SDS011;43683;48.650;9.290;2023-10-09T00:18:41;10.18;;;4.30;;
57856;SDS011;43683;48.650;9.290;2023-10-09T00:21:15;9.32;;;4.30;;
57856;SDS011;43683;48.650;9.290;2023-10-09T00:23:45;8.98;;;4.15;;
57856;SDS011;43683;48.650;9.290;2023-10-09T00:26:24;10.88;;;4.60;;
57856;SDS011;43683;48.650;9.290;2023-10-09T00:28:50;9.32;;;4.22;;
57856;SDS011;43683;48.650;9.290;2023-10-09T00:31:16;13.60;;;3.95;;
57856;SDS011;43683;48.650;9.290;2023-10-09T00:33:51;10.30;;;4.32;;
57856;SDS011;43683;48.650;9.290;2023-10-09T00:36:20;9.77;;;4.80;;
57856;SDS011;43683;48.650;9.290;2023-10-09T00:38:53;14.27;;;4.93;;
57856;SDS011;43683;48.650;9.290;2023-10-09T00:41:19;8.50;;;3.63;;
57856;SDS011;43683;48.650;9.290;2023-10-09T00:43:48;12.70;;;4.65;;
57856;SDS011;43683;48.650;9.290;2023-10-09T00:46:14;11.20;;;4.53;;
57856;SDS011;43683;48.650;9.290;2023-10-09T00:48:48;14.45;;;4.38;;
57856;SDS011;43683;48.650;9.290;2023-10-09T00:51:18;11.45;;;4.45;;
57856;SDS011;43683;48.650;9.290;2023-10-09T00:53:45;9.75;;;4.13;;
57856;SDS011;43683;48.650;9.290;2023-10-09T00:56:16;10.32;;;3.53;;
57856;SDS011;43683;48.650;9.290;2023-10-09T00:58:51;9.73;;;3.97;;
57856;SDS011;43683;48.650;9.290;2023-10-09T01:01:52;9.10;;;3.83;;
57856;SDS011;43683;48.650;9.290;2023-10-09T01:04:21;13.00;;;4.20;;
57856;SDS011;43683;48.650;9.290;2023-10-09T01:06:50;10.85;;;3.75;;
57856;SDS011;43683;48.650;9.290;2023-10-09T01:09:33;10.18;;;3.92;;
57856;SDS011;43683;48.650;9.290;2023-10-09T01:12:03;11.48;;;3.92;;
57856;SDS011;43683;48.650;9.290;2023-10-09T01:14:32;9.00;;;3.60;;
57856;SDS011;43683;48.650;9.290;2023-10-09T01:17:04;12.98;;;4.32;;
57856;SDS011;43683;48.650;9.290;2023-10-09T01:19:33;11.48;;;4.00;;
57856;SDS011;43683;48.650;9.290;2023-10-09T01:21:59;8.02;;;3.78;;
57856;SDS011;43683;48.650;9.290;2023-10-09T01:24:41;9.40;;;4.13;;
57856;SDS011;43683;48.650;9.290;2023-10-09T01:27:08;9.90;;;3.80;;
57856;SDS011;43683;48.650;9.290;2023-10-09T01:29:40;8.80;;;3.95;;
57856;SDS011;43683;48.650;9.290;2023-10-09T01:32:06;9.88;;;4.68;;
57856;SDS011;43683;48.650;9.290;2023-10-09T01:34:38;13.60;;;3.92;;
57856;SDS011;43683;48.650;9.290;2023-10-09T01:37:08;8.18;;;3.85;;
57856;SDS011;43683;48.650;9.290;2023-10-09T01:39:45;8.50;;;4.00;;
57856;SDS011;43683;48.650;9.290;2023-10-09T01:42:13;11.05;;;3.78;;
57856;SDS011;43683;48.650;9.290;2023-10-09T01:44:48;7.38;;;3.33;;
57856;SDS011;43683;48.650;9.290;2023-10-09T01:47:14;11.07;;;4.25;;
57856;SDS011;43683;48.650;9.290;2023-10-09T01:49:43;9.25;;;4.55;;
57856;SDS011;43683;48.650;9.290;2023-10-09T01:52:12;7.78;;;3.90;;
57856;SDS011;43683;48.650;9.290;2023-10-09T01:54:41;8.60;;;5.07;;
57856;SDS011;43683;48.650;9.290;2023-10-09T01:57:11;9.93;;;4.00;;
57856;SDS011;43683;48.650;9.290;2023-10-09T01:59:40;9.75;;;4.93;;
57856;SDS011;43683;48.650;9.290;2023-10-09T02:02:15;9.32;;;3.85;;
57856;SDS011;43683;48.650;9.290;2023-10-09T02:07:35;8.52;;;3.53;;
57856;SDS011;43683;48.650;9.290;2023-10-09T02:10:18;10.02;;;4.03;;
57856;SDS011;43683;48.650;9.290;2023-10-09T02:12:55;8.57;;;4.18;;
57856;SDS011;43683;48.650;9.290;2023-10-09T02:15:28;10.48;;;3.90;;
57856;SDS011;43683;48.650;9.290;2023-10-09T02:18:16;10.43;;;4.25;;
57856;SDS011;43683;48.650;9.290;2023-10-09T02:20:46;14.35;;;4.35;;
57856;SDS011;43683;48.650;9.290;2023-10-09T02:23:34;12.45;;;4.35;;
57856;SDS011;43683;48.650;9.290;2023-10-09T02:26:09;10.77;;;4.20;;
57856;SDS011;43683;48.650;9.290;2023-10-09T02:28:43;10.75;;;4.68;;
57856;SDS011;43683;48.650;9.290;2023-10-09T02:31:12;12.57;;;4.00;;
57856;SDS011;43683;48.650;9.290;2023-10-09T02:33:38;9.45;;;3.38;;
57856;SDS011;43683;48.650;9.290;2023-10-09T02:36:06;14.93;;;4.45;;
57856;SDS011;43683;48.650;9.290;2023-10-09T02:38:33;8.05;;;3.85;;
57856;SDS011;43683;48.650;9.290;2023-10-09T02:41:00;16.33;;;3.55;;
57856;SDS011;43683;48.650;9.290;2023-10-09T02:43:31;10.60;;;3.97;;
57856;SDS011;43683;48.650;9.290;2023-10-09T02:46:05;12.75;;;3.45;;
57856;SDS011;43683;48.650;9.290;2023-10-09T02:48:45;11.15;;;3.75;;
57856;SDS011;43683;48.650;9.290;2023-10-09T02:51:16;9.15;;;3.97;;
57856;SDS011;43683;48.650;9.290;2023-10-09T02:53:52;8.57;;;2.95;;
57856;SDS011;43683;48.650;9.290;2023-10-09T02:56:17;13.45;;;4.03;;
57856;SDS011;43683;48.650;9.290;2023-10-09T02:58:50;9.13;;;3.00;;
57856;SDS011;43683;48.650;9.290;2023-10-09T03:01:16;10.40;;;4.40;;
57856;SDS011;43683;48.650;9.290;2023-10-09T03:03:41;7.15;;;2.92;;
57856;SDS011;43683;48.650;9.290;2023-10-09T03:06:11;14.13;;;4.38;;
57856;SDS011;43683;48.650;9.290;2023-10-09T03:08:38;9.25;;;3.92;;
57856;SDS011;43683;48.650;9.290;2023-10-09T03:13:38;9.00;;;3.30;;
57856;SDS011;43683;48.650;9.290;2023-10-09T03:16:10;10.77;;;4.25;;
57856;SDS011;43683;48.650;9.290;2023-10-09T03:18:41;9.10;;;3.47;;
57856;SDS011;43683;48.650;9.290;2023-10-09T03:21:06;11.90;;;4.07;;
57856;SDS011;43683;48.650;9.290;2023-10-09T03:23:34;12.20;;;3.80;;
57856;SDS011;43683;48.650;9.290;2023-10-09T03:25:59;11.05;;;4.30;;
57856;SDS011;43683;48.650;9.290;2023-10-09T03:28:25;11.20;;;3.80;;
57856;SDS011;43683;48.650;9.290;2023-10-09T03:30:51;11.20;;;4.85;;
57856;SDS011;43683;48.650;9.290;2023-10-09T03:33:18;8.63;;;3.23;;
57856;SDS011;43683;48.650;9.290;2023-10-09T03:35:43;9.00;;;3.90;;
57856;SDS011;43683;48.650;9.290;2023-10-09T03:38:09;9.55;;;3.40;;
57856;SDS011;43683;48.650;9.290;2023-10-09T03:40:44;11.38;;;3.95;;
57856;SDS011;43683;48.650;9.290;2023-10-09T03:43:13;10.55;;;3.80;;
57856;SDS011;43683;48.650;9.290;2023-10-09T03:45:39;11.15;;;3.75;;
57856;SDS011;43683;48.650;9.290;2023-10-09T03:48:17;12.07;;;3.67;;
57856;SDS011;43683;48.650;9.290;2023-10-09T03:50:50;8.50;;;3.45;;
57856;SDS011;43683;48.650;9.290;2023-10-09T03:53:33;7.68;;;3.03;;
57856;SDS011;43683;48.650;9.290;2023-10-09T03:56:01;11.00;;;3.95;;
57856;SDS011;43683;48.650;9.290;2023-10-09T03:58:34;9.43;;;3.22;;
57856;SDS011;43683;48.650;9.290;2023-10-09T04:00:59;11.27;;;3.85;;
57856;SDS011;43683;48.650;9.290;2023-10-09T04:03:25;12.73;;;4.25;;
57856;SDS011;43683;48.650;9.290;2023-10-09T04:05:50;9.68;;;3.72;;
57856;SDS011;43683;48.650;9.290;2023-10-09T04:10:53;11.57;;;4.50;;
57856;SDS011;43683;48.650;9.290;2023-10-09T04:13:26;8.48;;;3.83;;
57856;SDS011;43683;48.650;9.290;2023-10-09T04:15:58;8.38;;;3.83;;
57856;SDS011;43683;48.650;9.290;2023-10-09T04:18:28;9.55;;;4.05;;
57856;SDS011;43683;48.650;9.290;2023-10-09T04:20:58;10.82;;;4.00;;
57856;SDS011;43683;48.650;9.290;2023-10-09T04:23:42;10.52;;;4.00;;
57856;SDS011;43683;48.650;9.290;2023-10-09T04:26:26;8.63;;;3.67;;
57856;SDS011;43683;48.650;9.290;2023-10-09T04:31:19;10.13;;;4.25;;
57856;SDS011;43683;48.650;9.290;2023-10-09T04:33:47;6.70;;;3.20;;
57856;SDS011;43683;48.650;9.290;2023-10-09T04:36:31;12.48;;;3.80;;
57856;SDS011;43683;48.650;9.290;2023-10-09T04:39:11;11.48;;;4.35;;
57856;SDS011;43683;48.650;9.290;2023-10-09T04:41:36;10.90;;;4.35;;
57856;SDS011;43683;48.650;9.290;2023-10-09T04:44:10;11.38;;;4.00;;
57856;SDS011;43683;48.650;9.290;2023-10-09T04:46:49;11.27;;;3.67;;
57856;SDS011;43683;48.650;9.290;2023-10-09T04:49:34;11.38;;;4.05;;
57856;SDS011;43683;48.650;9.290;2023-10-09T04:52:12;9.73;;;3.30;;
57856;SDS011;43683;48.650;9.290;2023-10-09T04:54:50;11.65;;;4.95;;
57856;SDS011;43683;48.650;9.290;2023-10-09T04:57:40;14.32;;;5.22;;
57856;SDS011;43683;48.650;9.290;2023-10-09T05:00:07;11.30;;;3.47;;
57856;SDS011;43683;48.650;9.290;2023-10-09T05:02:53;9.68;;;3.90;;
57856;SDS011;43683;48.650;9.290;2023-10-09T05:05:20;10.45;;;3.65;;
57856;SDS011;43683;48.650;9.290;2023-10-09T05:08:04;13.00;;;4.45;;
57856;SDS011;43683;48.650;9.290;2023-10-09T05:10:50;9.20;;;3.60;;
57856;SDS011;43683;48.650;9.290;2023-10-09T05:13:26;14.20;;;4.07;;
57856;SDS011;43683;48.650;9.290;2023-10-09T05:16:05;11.25;;;4.35;;
57856;SDS011;43683;48.650;9.290;2023-10-09T05:18:54;10.48;;;4.43;;
57856;SDS011;43683;48.650;9.290;2023-10-09T05:21:39;12.65;;;5.10;;
57856;SDS011;43683;48.650;9.290;2023-10-09T05:24:08;12.02;;;4.18;;
57856;SDS011;43683;48.650;9.290;2023-10-09T05:26:37;7.75;;;3.08;;
57856;SDS011;43683;48.650;9.290;2023-10-09T05:31:57;12.60;;;4.65;;
57856;SDS011;43683;48.650;9.290;2023-10-09T05:34:29;13.05;;;3.92;;
57856;SDS011;43683;48.650;9.290;2023-10-09T05:37:14;9.75;;;3.45;;
57856;SDS011;43683;48.650;9.290;2023-10-09T05:39:43;8.93;;;3.33;;
57856;SDS011;43683;48.650;9.290;2023-10-09T05:42:23;9.23;;;3.72;;
57856;SDS011;43683;48.650;9.290;2023-10-09T05:44:53;10.95;;;4.57;;
57856;SDS011;43683;48.650;9.290;2023-10-09T05:47:37;11.32;;;4.63;;
57856;SDS011;43683;48.650;9.290;2023-10-09T05:50:12;11.43;;;3.22;;
57856;SDS011;43683;48.650;9.290;2023-10-09T05:52:38;11.10;;;3.92;;
57856;SDS011;43683;48.650;9.290;2023-10-09T05:55:04;16.25;;;4.07;;
57856;SDS011;43683;48.650;9.290;2023-10-09T05:57:49;9.30;;;4.13;;
57856;SDS011;43683;48.650;9.290;2023-10-09T06:00:36;11.77;;;3.70;;
57856;SDS011;43683;48.650;9.290;2023-10-09T06:03:20;9.45;;;3.50;;
57856;SDS011;43683;48.650;9.290;2023-10-09T06:05:50;9.23;;;3.85;;
57856;SDS011;43683;48.650;9.290;2023-10-09T06:08:23;11.07;;;3.70;;
57856;SDS011;43683;48.650;9.290;2023-10-09T06:10:52;12.60;;;3.33;;
57856;SDS011;43683;48.650;9.290;2023-10-09T06:13:37;12.40;;;3.58;;
57856;SDS011;43683;48.650;9.290;2023-10-09T06:16:02;11.05;;;3.75;;
57856;SDS011;43683;48.650;9.290;2023-10-09T06:18:45;8.80;;;3.67;;
57856;SDS011;43683;48.650;9.290;2023-10-09T06:21:19;7.82;;;3.38;;
57856;SDS011;43683;48.650;9.290;2023-10-09T06:24:06;13.50;;;4.10;;
57856;SDS011;43683;48.650;9.290;2023-10-09T06:26:55;11.30;;;4.40;;
57856;SDS011;43683;48.650;9.290;2023-10-09T06:29:24;11.70;;;3.50;;
57856;SDS011;43683;48.650;9.290;2023-10-09T06:32:07;9.55;;;3.70;;
57856;SDS011;43683;48.650;9.290;2023-10-09T06:34:58;11.52;;;3.53;;
57856;SDS011;43683;48.650;9.290;2023-10-09T06:37:43;9.65;;;3.78;;
57856;SDS011;43683;48.650;9.290;2023-10-09T06:40:31;9.25;;;3.30;;
57856;SDS011;43683;48.650;9.290;2023-10-09T06:45:42;10.65;;;3.47;;
57856;SDS011;43683;48.650;9.290;2023-10-09T06:48:11;7.55;;;3.42;;
57856;SDS011;43683;48.650;9.290;2023-10-09T06:50:56;12.80;;;3.42;;
57856;SDS011;43683;48.650;9.290;2023-10-09T06:53:40;12.18;;;3.72;;
57856;SDS011;43683;48.650;9.290;2023-10-09T06:59:07;12.23;;;4.00;;
57856;SDS011;43683;48.650;9.290;2023-10-09T07:02:02;9.73;;;3.40;;
57856;SDS011;43683;48.650;9.290;2023-10-09T07:04:51;12.77;;;3.20;;
57856;SDS011;43683;48.650;9.290;2023-10-09T07:07:19;9.15;;;3.15;;
57856;SDS011;43683;48.650;9.290;2023-10-09T07:09:49;8.88;;;3.50;;
57856;SDS011;43683;48.650;9.290;2023-10-09T07:12:34;12.45;;;3.30;;
57856;SDS011;43683;48.650;9.290;2023-10-09T07:15:07;11.73;;;3.60;;
57856;SDS011;43683;48.650;9.290;2023-10-09T07:17:33;11.90;;;3.33;;
57856;SDS011;43683;48.650;9.290;2023-10-09T07:19:59;9.13;;;3.42;;
57856;SDS011;43683;48.650;9.290;2023-10-09T07:22:38;11.90;;;3.63;;
57856;SDS011;43683;48.650;9.290;2023-10-09T07:25:14;9.82;;;3.40;;
57856;SDS011;43683;48.650;9.290;2023-10-09T07:27:40;11.63;;;4.57;;
57856;SDS011;43683;48.650;9.290;2023-10-09T07:30:17;13.48;;;3.45;;
57856;SDS011;43683;48.650;9.290;2023-10-09T07:32:56;11.35;;;3.30;;
57856;SDS011;43683;48.650;9.290;2023-10-09T07:35:34;11.70;;;3.22;;
57856;SDS011;43683;48.650;9.290;2023-10-09T07:40:45;32.92;;;5.95;;
57856;SDS011;43683;48.650;9.290;2023-10-09T07:43:25;13.32;;;3.33;;
57856;SDS011;43683;48.650;9.290;2023-10-09T07:45:56;10.75;;;4.03;;
57856;SDS011;43683;48.650;9.290;2023-10-09T07:48:24;12.02;;;3.13;;
57856;SDS011;43683;48.650;9.290;2023-10-09T07:51:03;10.70;;;4.43;;
57856;SDS011;43683;48.650;9.290;2023-10-09T07:53:36;10.10;;;3.05;;
57856;SDS011;43683;48.650;9.290;2023-10-09T07:56:08;7.70;;;2.90;;
57856;SDS011;43683;48.650;9.290;2023-10-09T07:58:34;9.13;;;4.13;;
57856;SDS011;43683;48.650;9.290;2023-10-09T08:01:11;10.50;;;3.60;;
57856;SDS011;43683;48.650;9.290;2023-10-09T08:04:00;12.70;;;3.25;;
57856;SDS011;43683;48.650;9.290;2023-10-09T08:06:39;12.52;;;4.10;;
57856;SDS011;43683;48.650;9.290;2023-10-09T08:09:10;6.22;;;3.00;;
57856;SDS011;43683;48.650;9.290;2023-10-09T08:11:42;7.15;;;3.13;;
57856;SDS011;43683;48.650;9.290;2023-10-09T08:14:29;9.30;;;3.08;;
57856;SDS011;43683;48.650;9.290;2023-10-09T08:16:57;10.65;;;3.40;;
57856;SDS011;43683;48.650;9.290;2023-10-09T08:19:49;8.23;;;2.83;;
57856;SDS011;43683;48.650;9.290;2023-10-09T08:22:25;8.35;;;3.15;;
57856;SDS011;43683;48.650;9.290;2023-10-09T08:24:55;6.85;;;2.58;;
57856;SDS011;43683;48.650;9.290;2023-10-09T08:27:24;10.13;;;3.33;;
57856;SDS011;43683;48.650;9.290;2023-10-09T08:30:13;7.47;;;2.45;;
57856;SDS011;43683;48.650;9.290;2023-10-09T08:32:42;10.15;;;3.22;;
57856;SDS011;43683;48.650;9.290;2023-10-09T08:35:08;6.53;;;2.78;;
57856;SDS011;43683;48.650;9.290;2023-10-09T08:37:57;11.52;;;3.00;;
57856;SDS011;43683;48.650;9.290;2023-10-09T08:40:57;5.90;;;2.05;;
57856;SDS011;43683;48.650;9.290;2023-10-09T08:43:19;5.93;;;2.30;;
57856;SDS011;43683;48.650;9.290;2023-10-09T08:45:47;11.98;;;3.08;;
57856;SDS011;43683;48.650;9.290;2023-10-09T08:48:13;12.13;;;3.17;;
57856;SDS011;43683;48.650;9.290;2023-10-09T08:50:43;11.07;;;2.75;;
57856;SDS011;43683;48.650;9.290;2023-10-09T08:53:12;10.75;;;3.15;;
57856;SDS011;43683;48.650;9.290;2023-10-09T08:55:39;10.70;;;2.97;;
57856;SDS011;43683;48.650;9.290;2023-10-09T08:58:06;10.98;;;3.08;;
57856;SDS011;43683;48.650;9.290;2023-10-09T09:00:51;11.90;;;3.88;;
57856;SDS011;43683;48.650;9.290;2023-10-09T09:03:19;9.73;;;2.90;;
57856;SDS011;43683;48.650;9.290;2023-10-09T09:06:00;8.63;;;2.53;;
57856;SDS011;43683;48.650;9.290;2023-10-09T09:08:27;9.73;;;3.10;;
57856;SDS011;43683;48.650;9.290;2023-10-09T09:10:58;10.18;;;2.58;;
57856;SDS011;43683;48.650;9.290;2023-10-09T09:13:37;9.20;;;2.30;;
57856;SDS011;43683;48.650;9.290;2023-10-09T09:16:12;9.10;;;3.53;;
57856;SDS011;43683;48.650;9.290;2023-10-09T09:18:52;8.25;;;2.58;;
57856;SDS011;43683;48.650;9.290;2023-10-09T09:21:33;7.75;;;2.25;;
57856;SDS011;43683;48.650;9.290;2023-10-09T09:24:07;8.48;;;2.85;;
57856;SDS011;43683;48.650;9.290;2023-10-09T09:26:46;10.18;;;2.40;;
57856;SDS011;43683;48.650;9.290;2023-10-09T09:29:12;9.60;;;2.45;;
57856;SDS011;43683;48.650;9.290;2023-10-09T09:31:38;9.05;;;2.60;;
57856;SDS011;43683;48.650;9.290;2023-10-09T09:34:20;8.15;;;2.83;;
57856;SDS011;43683;48.650;9.290;2023-10-09T09:36:54;10.20;;;2.92;;
57856;SDS011;43683;48.650;9.290;2023-10-09T09:39:21;16.55;;;2.92;;
57856;SDS011;43683;48.650;9.290;2023-10-09T09:41:56;9.95;;;2.85;;
57856;SDS011;43683;48.650;9.290;2023-10-09T09:44:28;8.27;;;2.08;;
57856;SDS011;43683;48.650;9.290;2023-10-09T09:46:59;6.45;;;2.13;;
57856;SDS011;43683;48.650;9.290;2023-10-09T09:49:25;9.77;;;3.72;;
57856;SDS011;43683;48.650;9.290;2023-10-09T09:51:56;9.05;;;2.30;;
57856;SDS011;43683;48.650;9.290;2023-10-09T09:54:26;10.27;;;2.20;;
57856;SDS011;43683;48.650;9.290;2023-10-09T09:56:52;9.52;;;2.53;;
57856;SDS011;43683;48.650;9.290;2023-10-09T09:59:19;7.45;;;2.22;;
57856;SDS011;43683;48.650;9.290;2023-10-09T10:01:52;10.80;;;3.13;;
57856;SDS011;43683;48.650;9.290;2023-10-09T10:04:31;10.20;;;2.20;;
57856;SDS011;43683;48.650;9.290;2023-10-09T10:07:00;6.45;;;2.45;;
57856;SDS011;43683;48.650;9.290;2023-10-09T10:09:37;7.93;;;2.20;;
57856;SDS011;43683;48.650;9.290;2023-10-09T10:12:10;10.10;;;2.70;;
57856;SDS011;43683;48.650;9.290;2023-10-09T10:17:18;8.55;;;2.22;;
57856;SDS011;43683;48.650;9.290;2023-10-09T10:20:02;11.20;;;2.97;;
57856;SDS011;43683;48.650;9.290;2023-10-09T10:22:44;7.88;;;1.90;;
57856;SDS011;43683;48.650;9.290;2023-10-09T10:25:34;7.55;;;2.28;;
57856;SDS011;43683;48.650;9.290;2023-10-09T10:28:16;9.65;;;2.40;;
57856;SDS011;43683;48.650;9.290;2023-10-09T10:31:07;10.18;;;2.17;;
57856;SDS011;43683;48.650;9.290;2023-10-09T10:34:03;7.20;;;1.90;;
57856;SDS011;43683;48.650;9.290;2023-10-09T10:36:31;10.53;;;3.90;;
57856;SDS011;43683;48.650;9.290;2023-10-09T10:39:03;8.45;;;2.55;;
57856;SDS011;43683;48.650;9.290;2023-10-09T10:41:29;10.07;;;2.38;;
57856;SDS011;43683;48.650;9.290;2023-10-09T10:44:01;8.27;;;2.03;;
57856;SDS011;43683;48.650;9.290;2023-10-09T10:46:47;14.48;;;2.60;;
57856;SDS011;43683;48.650;9.290;2023-10-09T10:49:19;7.95;;;2.42;;
57856;SDS011;43683;48.650;9.290;2023-10-09T10:51:49;13.73;;;2.75;;
57856;SDS011;43683;48.650;9.290;2023-10-09T10:54:26;16.27;;;2.95;;
57856;SDS011;43683;48.650;9.290;2023-10-09T10:57:17;11.27;;;3.20;;
57856;SDS011;43683;48.650;9.290;2023-10-09T11:00:09;10.48;;;2.58;;
57856;SDS011;43683;48.650;9.290;2023-10-09T11:02:58;12.85;;;2.92;;
57856;SDS011;43683;48.650;9.290;2023-10-09T11:05:42;12.80;;;3.63;;
57856;SDS011;43683;48.650;9.290;2023-10-09T11:08:15;9.98;;;2.70;;
57856;SDS011;43683;48.650;9.290;2023-10-09T11:10:47;12.23;;;2.88;;
57856;SDS011;43683;48.650;9.290;2023-10-09T11:13:22;7.97;;;2.40;;
57856;SDS011;43683;48.650;9.290;2023-10-09T11:15:55;11.65;;;2.85;;
57856;SDS011;43683;48.650;9.290;2023-10-09T11:18:39;12.68;;;2.95;;
57856;SDS011;43683;48.650;9.290;2023-10-09T11:21:12;10.73;;;2.58;;
57856;SDS011;43683;48.650;9.290;2023-10-09T11:23:39;10.15;;;3.13;;
57856;SDS011;43683;48.650;9.290;2023-10-09T11:26:16;11.40;;;2.50;;
57856;SDS011;43683;48.650;9.290;2023-10-09T11:29:09;9.18;;;2.60;;
57856;SDS011;43683;48.650;9.290;2023-10-09T11:32:07;7.53;;;2.50;;
57856;SDS011;43683;48.650;9.290;2023-10-09T11:34:47;15.43;;;2.75;;
57856;SDS011;43683;48.650;9.290;2023-10-09T11:37:20;9.48;;;2.78;;
57856;SDS011;43683;48.650;9.290;2023-10-09T11:39:58;10.68;;;3.13;;
57856;SDS011;43683;48.650;9.290;2023-10-09T11:42:28;13.10;;;3.20;;
57856;SDS011;43683;48.650;9.290;2023-10-09T11:45:00;11.38;;;2.72;;
57856;SDS011;43683;48.650;9.290;2023-10-09T11:47:34;10.90;;;2.85;;
57856;SDS011;43683;48.650;9.290;2023-10-09T11:50:00;16.35;;;3.45;;
57856;SDS011;43683;48.650;9.290;2023-10-09T11:52:26;13.27;;;3.63;;
57856;SDS011;43683;48.650;9.290;2023-10-09T11:55:12;15.50;;;3.05;;
57856;SDS011;43683;48.650;9.290;2023-10-09T11:57:41;12.38;;;3.65;;
57856;SDS011;43683;48.650;9.290;2023-10-09T12:00:07;11.80;;;2.80;;
57856;SDS011;43683;48.650;9.290;2023-10-09T12:02:36;11.32;;;2.63;;
57856;SDS011;43683;48.650;9.290;2023-10-09T12:05:09;14.82;;;3.22;;
57856;SDS011;43683;48.650;9.290;2023-10-09T12:07:41;12.75;;;2.70;;
57856;SDS011;43683;48.650;9.290;2023-10-09T12:10:10;11.73;;;3.90;;
57856;SDS011;43683;48.650;9.290;2023-10-09T12:12:38;11.93;;;3.03;;
57856;SDS011;43683;48.650;9.290;2023-10-09T12:15:05;13.55;;;3.40;;
57856;SDS011;43683;48.650;9.290;2023-10-09T12:17:31;11.05;;;3.45;;
57856;SDS011;43683;48.650;9.290;2023-10-09T12:19:57;12.80;;;2.72;;
57856;SDS011;43683;48.650;9.290;2023-10-09T12:22:23;17.13;;;3.13;;
57856;SDS011;43683;48.650;9.290;2023-10-09T12:24:52;11.65;;;3.03;;
57856;SDS011;43683;48.650;9.290;2023-10-09T12:27:17;10.18;;;2.58;;
57856;SDS011;43683;48.650;9.290;2023-10-09T12:32:11;11.43;;;2.70;;
57856;SDS011;43683;48.650;9.290;2023-10-09T12:34:36;12.57;;;3.33;;
57856;SDS011;43683;48.650;9.290;2023-10-09T12:37:03;10.90;;;3.08;;
57856;SDS011;43683;48.650;9.290;2023-10-09T12:39:29;15.77;;;2.88;;
57856;SDS011;43683;48.650;9.290;2023-10-09T12:42:05;12.27;;;3.00;;
57856;SDS011;43683;48.650;9.290;2023-10-09T12:44:34;11.13;;;2.90;;
57856;SDS011;43683;48.650;9.290;2023-10-09T12:47:04;14.63;;;2.92;;
57856;SDS011;43683;48.650;9.290;2023-10-09T12:51:56;12.93;;;2.72;;
57856;SDS011;43683;48.650;9.290;2023-10-09T12:54:22;12.93;;;2.97;;
57856;SDS011;43683;48.650;9.290;2023-10-09T12:56:52;12.15;;;2.85;;
57856;SDS011;43683;48.650;9.290;2023-10-09T12:59:21;11.52;;;2.45;;
57856;SDS011;43683;48.650;9.290;2023-10-09T13:01:48;11.32;;;2.63;;
57856;SDS011;43683;48.650;9.290;2023-10-09T13:04:18;10.95;;;2.80;;
57856;SDS011;43683;48.650;9.290;2023-10-09T13:06:47;12.05;;;2.78;;
57856;SDS011;43683;48.650;9.290;2023-10-09T13:09:16;12.50;;;2.67;;
57856;SDS011;43683;48.650;9.290;2023-10-09T13:12:07;13.90;;;2.47;;
57856;SDS011;43683;48.650;9.290;2023-10-09T13:14:34;11.02;;;2.63;;
57856;SDS011;43683;48.650;9.290;2023-10-09T13:17:00;10.60;;;2.93;;
57856;SDS011;43683;48.650;9.290;2023-10-09T13:19:34;10.05;;;2.83;;
57856;SDS011;43683;48.650;9.290;2023-10-09T13:22:00;13.18;;;3.78;;
57856;SDS011;43683;48.650;9.290;2023-10-09T13:24:28;12.15;;;2.88;;
57856;SDS011;43683;48.650;9.290;2023-10-09T13:26:55;12.88;;;2.72;;
57856;SDS011;43683;48.650;9.290;2023-10-09T13:29:23;8.55;;;2.50;;
57856;SDS011;43683;48.650;9.290;2023-10-09T13:31:48;11.02;;;2.67;;
57856;SDS011;43683;48.650;9.290;2023-10-09T13:34:17;15.95;;;2.97;;
57856;SDS011;43683;48.650;9.290;2023-10-09T13:36:43;15.63;;;2.83;;
57856;SDS011;43683;48.650;9.290;2023-10-09T13:39:18;10.13;;;2.53;;
57856;SDS011;43683;48.650;9.290;2023-10-09T13:41:56;7.32;;;2.50;;
57856;SDS011;43683;48.650;9.290;2023-10-09T13:44:29;18.45;;;3.00;;
57856;SDS011;43683;48.650;9.290;2023-10-09T13:46:57;12.63;;;2.42;;
57856;SDS011;43683;48.650;9.290;2023-10-09T13:49:24;11.23;;;2.97;;
57856;SDS011;43683;48.650;9.290;2023-10-09T13:51:54;11.27;;;3.22;;
57856;SDS011;43683;48.650;9.290;2023-10-09T13:57:03;10.00;;;3.00;;
57856;SDS011;43683;48.650;9.290;2023-10-09T13:59:29;10.32;;;2.80;;
57856;SDS011;43683;48.650;9.290;2023-10-09T14:01:55;9.37;;;2.73;;
57856;SDS011;43683;48.650;9.290;2023-10-09T14:04:21;10.67;;;2.30;;
57856;SDS011;43683;48.650;9.290;2023-10-09T14:06:48;12.10;;;2.70;;
57856;SDS011;43683;48.650;9.290;2023-10-09T14:09:22;10.93;;;2.92;;
57856;SDS011;43683;48.650;9.290;2023-10-09T14:12:03;12.05;;;4.28;;
57856;SDS011;43683;48.650;9.290;2023-10-09T14:14:39;17.63;;;2.63;;
57856;SDS011;43683;48.650;9.290;2023-10-09T14:17:14;15.38;;;2.85;;
57856;SDS011;43683;48.650;9.290;2023-10-09T14:19:44;10.38;;;2.40;;
57856;SDS011;43683;48.650;9.290;2023-10-09T14:22:15;12.48;;;2.20;;
57856;SDS011;43683;48.650;9.290;2023-10-09T14:24:42;13.88;;;2.58;;
57856;SDS011;43683;48.650;9.290;2023-10-09T14:27:14;7.80;;;2.08;;
57856;SDS011;43683;48.650;9.290;2023-10-09T14:29:46;10.70;;;2.90;;
57856;SDS011;43683;48.650;9.290;2023-10-09T14:32:13;10.25;;;3.03;;
57856;SDS011;43683;48.650;9.290;2023-10-09T14:34:39;9.02;;;2.67;;
57856;SDS011;43683;48.650;9.290;2023-10-09T14:37:12;9.25;;;2.50;;
57856;SDS011;43683;48.650;9.290;2023-10-09T14:39:40;8.40;;;2.55;;
57856;SDS011;43683;48.650;9.290;2023-10-09T14:42:06;8.65;;;2.50;;
57856;SDS011;43683;48.650;9.290;2023-10-09T14:44:35;9.02;;;2.47;;
57856;SDS011;43683;48.650;9.290;2023-10-09T14:47:05;9.77;;;2.67;;
57856;SDS011;43683;48.650;9.290;2023-10-09T14:49:31;9.07;;;2.40;;
57856;SDS011;43683;48.650;9.290;2023-10-09T14:52:02;8.75;;;2.45;;
57856;SDS011;43683;48.650;9.290;2023-10-09T14:54:28;11.20;;;3.40;;
57856;SDS011;43683;48.650;9.290;2023-10-09T14:56:53;11.60;;;3.03;;
57856;SDS011;43683;48.650;9.290;2023-10-09T14:59:19;10.65;;;2.65;;
57856;SDS011;43683;48.650;9.290;2023-10-09T15:01:47;14.90;;;2.80;;
57856;SDS011;43683;48.650;9.290;2023-10-09T15:04:15;9.38;;;2.33;;
57856;SDS011;43683;48.650;9.290;2023-10-09T15:06:40;10.15;;;2.53;;
57856;SDS011;43683;48.650;9.290;2023-10-09T15:09:06;11.55;;;3.83;;
57856;SDS011;43683;48.650;9.290;2023-10-09T15:11:46;11.10;;;2.90;;
57856;SDS011;43683;48.650;9.290;2023-10-09T15:14:13;14.90;;;2.97;;
57856;SDS011;43683;48.650;9.290;2023-10-09T15:16:39;13.40;;;3.50;;
57856;SDS011;43683;48.650;9.290;2023-10-09T15:19:07;8.10;;;2.75;;
57856;SDS011;43683;48.650;9.290;2023-10-09T15:21:34;14.43;;;3.00;;
57856;SDS011;43683;48.650;9.290;2023-10-09T15:24:09;8.13;;;2.60;;
57856;SDS011;43683;48.650;9.290;2023-10-09T15:26:40;11.10;;;2.88;;
57856;SDS011;43683;48.650;9.290;2023-10-09T15:29:17;11.45;;;3.47;;
57856;SDS011;43683;48.650;9.290;2023-10-09T15:31:44;10.90;;;2.72;;
57856;SDS011;43683;48.650;9.290;2023-10-09T15:34:12;12.60;;;2.72;;
57856;SDS011;43683;48.650;9.290;2023-10-09T15:36:37;12.38;;;3.00;;
57856;SDS011;43683;48.650;9.290;2023-10-09T15:39:05;11.40;;;2.95;;
57856;SDS011;43683;48.650;9.290;2023-10-09T15:41:33;9.20;;;2.65;;
57856;SDS011;43683;48.650;9.290;2023-10-09T15:43:59;10.90;;;2.85;;